createdAt,value
2018-12-31T00:01:22.435Z,8.10
2018-12-31T00:03:51.920Z,8.00
2018-12-31T00:06:21.002Z,8.00
2018-12-31T00:08:50.173Z,8.00
2018-12-31T00:11:19.266Z,7.80
2018-12-31T00:13:48.366Z,7.80
2018-12-31T00:16:17.738Z,7.90
2018-12-31T00:18:46.834Z,7.90
2018-12-31T00:21:16.205Z,7.90
2018-12-31T00:23:47.671Z,7.70
2018-12-31T00:26:16.764Z,7.60
2018-12-31T00:28:47.485Z,7.60
2018-12-31T00:31:16.752Z,7.70
2018-12-31T00:33:45.841Z,7.60
2018-12-31T00:36:14.936Z,7.80
2018-12-31T00:38:46.960Z,7.90
2018-12-31T00:41:16.060Z,7.90
2018-12-31T00:43:45.144Z,7.90
2018-12-31T00:46:14.243Z,7.80
2018-12-31T00:48:43.333Z,7.70
2018-12-31T00:51:12.427Z,7.80
2018-12-31T00:53:41.516Z,8.00
2018-12-31T00:56:10.612Z,8.00
2018-12-31T00:58:39.700Z,8.00
2018-12-31T01:01:08.788Z,8.00
2018-12-31T01:03:37.872Z,8.00
2018-12-31T01:06:06.968Z,8.10
2018-12-31T01:08:36.051Z,8.10
2018-12-31T01:11:05.150Z,8.10
2018-12-31T01:13:34.241Z,7.90
2018-12-31T01:16:03.337Z,7.90
2018-12-31T01:18:32.423Z,7.80
2018-12-31T01:21:01.520Z,7.80
2018-12-31T01:23:30.598Z,7.80
2018-12-31T01:25:59.693Z,7.80
2018-12-31T01:28:28.777Z,7.60
2018-12-31T01:30:57.874Z,7.50
2018-12-31T01:33:26.972Z,7.40
2018-12-31T01:35:56.377Z,7.50
2018-12-31T01:38:25.458Z,7.60
2018-12-31T01:40:54.558Z,7.70
2018-12-31T01:43:23.649Z,7.80
2018-12-31T01:45:53.052Z,7.80
2018-12-31T01:48:22.141Z,8.00
2018-12-31T01:50:51.245Z,7.70
2018-12-31T01:53:20.332Z,7.60
2018-12-31T01:55:49.434Z,7.70
2018-12-31T01:58:18.526Z,7.80
2018-12-31T02:00:47.606Z,7.90
2018-12-31T02:03:16.701Z,8.00
2018-12-31T02:05:45.785Z,8.00
2018-12-31T02:08:14.890Z,8.00
2018-12-31T02:10:43.975Z,8.00
2018-12-31T02:13:13.065Z,8.00
2018-12-31T02:15:42.160Z,8.00
2018-12-31T02:18:11.256Z,8.10
2018-12-31T02:20:40.352Z,8.00
2018-12-31T02:23:09.451Z,8.00
2018-12-31T02:25:38.783Z,8.00
2018-12-31T02:28:07.886Z,7.70
2018-12-31T02:30:36.972Z,7.70
2018-12-31T02:33:06.070Z,8.00
2018-12-31T02:35:35.164Z,8.10
2018-12-31T02:38:04.278Z,8.20
2018-12-31T02:40:33.357Z,8.30
2018-12-31T02:43:02.453Z,8.20
2018-12-31T02:45:31.542Z,8.20
2018-12-31T02:48:00.638Z,8.30
2018-12-31T02:50:29.722Z,8.40
2018-12-31T02:52:58.822Z,8.50
2018-12-31T02:55:27.916Z,8.40
2018-12-31T02:57:57.981Z,8.30
2018-12-31T03:00:27.384Z,8.20
2018-12-31T03:02:56.486Z,8.20
2018-12-31T03:05:25.573Z,8.20
2018-12-31T03:07:54.692Z,8.20
2018-12-31T03:10:23.773Z,8.30
2018-12-31T03:12:52.867Z,8.20
2018-12-31T03:15:21.972Z,8.10
2018-12-31T03:17:51.067Z,8.10
2018-12-31T03:20:20.206Z,8.10
2018-12-31T03:22:49.307Z,8.10
2018-12-31T03:25:18.389Z,8.00
2018-12-31T03:27:47.484Z,8.10
2018-12-31T03:30:16.566Z,8.10
2018-12-31T03:32:45.664Z,8.10
2018-12-31T03:35:14.749Z,8.10
2018-12-31T03:37:43.852Z,8.20
2018-12-31T03:40:12.937Z,8.20
2018-12-31T03:42:42.043Z,8.10
2018-12-31T03:45:11.133Z,8.00
2018-12-31T03:47:40.625Z,8.10
2018-12-31T03:50:09.705Z,8.10
2018-12-31T03:52:38.804Z,8.20
2018-12-31T03:55:07.890Z,8.10
2018-12-31T03:57:36.990Z,8.00
2018-12-31T04:00:06.245Z,8.10
2018-12-31T04:02:35.347Z,8.10
2018-12-31T04:05:04.801Z,8.10
2018-12-31T04:07:33.903Z,8.10
2018-12-31T04:10:03.074Z,8.20
2018-12-31T04:12:32.449Z,8.00
2018-12-31T04:15:01.525Z,7.80
2018-12-31T04:17:30.620Z,7.90
2018-12-31T04:19:59.756Z,8.00
2018-12-31T04:22:28.854Z,7.80
2018-12-31T04:24:57.933Z,7.90
2018-12-31T04:27:27.038Z,7.90
2018-12-31T04:29:56.123Z,8.00
2018-12-31T04:32:25.308Z,8.10
2018-12-31T04:34:54.378Z,8.10
2018-12-31T04:37:23.472Z,8.10
2018-12-31T04:39:52.555Z,8.00
2018-12-31T04:42:21.652Z,8.00
2018-12-31T04:44:50.744Z,8.00
2018-12-31T04:47:20.096Z,7.80
2018-12-31T04:49:49.185Z,7.80
2018-12-31T04:52:18.282Z,7.80
2018-12-31T04:54:47.370Z,7.90
2018-12-31T04:57:16.474Z,7.90
2018-12-31T04:59:45.628Z,8.10
2018-12-31T05:02:14.735Z,8.00
2018-12-31T05:04:43.813Z,8.00
2018-12-31T05:07:12.912Z,8.00
2018-12-31T05:09:41.995Z,8.10
2018-12-31T05:12:11.092Z,8.20
2018-12-31T05:14:40.177Z,8.00
2018-12-31T05:17:09.275Z,7.90
2018-12-31T05:19:38.361Z,8.00
2018-12-31T05:22:07.449Z,8.20
2018-12-31T05:24:36.529Z,8.10
2018-12-31T05:27:05.637Z,8.10
2018-12-31T05:29:34.710Z,8.30
2018-12-31T05:32:03.816Z,8.40
2018-12-31T05:34:32.902Z,8.50
2018-12-31T05:37:01.989Z,8.40
2018-12-31T05:39:31.090Z,8.50
2018-12-31T05:42:00.177Z,8.60
2018-12-31T05:44:29.322Z,8.50
2018-12-31T05:46:58.452Z,8.60
2018-12-31T05:49:27.543Z,8.60
2018-12-31T05:51:56.633Z,8.60
2018-12-31T05:54:25.734Z,8.70
2018-12-31T05:56:54.832Z,8.60
2018-12-31T05:59:23.938Z,8.60
2018-12-31T06:01:53.029Z,8.50
2018-12-31T06:04:22.117Z,8.50
2018-12-31T06:06:51.205Z,8.50
2018-12-31T06:09:20.326Z,8.40
2018-12-31T06:11:49.422Z,8.40
2018-12-31T06:14:18.517Z,8.20
2018-12-31T06:16:47.608Z,8.20
2018-12-31T06:19:16.696Z,8.20
2018-12-31T06:21:45.785Z,8.10
2018-12-31T06:24:14.897Z,8.20
2018-12-31T06:26:43.997Z,8.10
2018-12-31T06:29:13.094Z,8.10
2018-12-31T06:31:42.190Z,8.30
2018-12-31T06:34:11.294Z,8.40
2018-12-31T06:36:40.389Z,8.40
2018-12-31T06:39:09.497Z,8.20
2018-12-31T06:41:38.581Z,8.00
2018-12-31T06:44:07.675Z,8.00
2018-12-31T06:46:36.772Z,8.10
2018-12-31T06:49:05.900Z,8.10
2018-12-31T06:51:34.995Z,8.20
2018-12-31T06:54:04.080Z,8.20
2018-12-31T06:56:33.221Z,8.20
2018-12-31T06:59:02.354Z,7.90
2018-12-31T07:01:31.437Z,7.80
2018-12-31T07:04:00.538Z,7.90
2018-12-31T07:06:29.618Z,8.00
2018-12-31T07:08:58.709Z,8.10
2018-12-31T07:11:27.793Z,8.00
2018-12-31T07:13:56.890Z,7.90
2018-12-31T07:16:25.985Z,7.90
2018-12-31T07:18:55.077Z,7.90
2018-12-31T07:21:24.295Z,8.00
2018-12-31T07:23:53.376Z,7.90
2018-12-31T07:26:22.465Z,7.90
2018-12-31T07:28:52.528Z,7.80
2018-12-31T07:31:21.619Z,7.90
2018-12-31T07:33:50.705Z,7.90
2018-12-31T07:36:19.807Z,7.90
2018-12-31T07:38:48.961Z,7.90
2018-12-31T07:41:18.057Z,8.00
2018-12-31T07:43:47.141Z,8.10
2018-12-31T07:46:16.229Z,8.30
2018-12-31T07:48:45.313Z,8.40
2018-12-31T07:51:14.417Z,8.10
2018-12-31T07:53:43.506Z,8.10
2018-12-31T07:56:12.601Z,8.10
2018-12-31T07:58:41.689Z,8.10
2018-12-31T08:01:10.867Z,8.20
2018-12-31T08:03:39.958Z,8.20
2018-12-31T08:06:09.054Z,8.40
2018-12-31T08:08:38.151Z,8.40
2018-12-31T08:11:07.246Z,8.30
2018-12-31T08:13:36.500Z,8.20
2018-12-31T08:16:05.613Z,8.20
2018-12-31T08:18:34.705Z,8.20
2018-12-31T08:21:03.798Z,8.30
2018-12-31T08:23:32.878Z,8.10
2018-12-31T08:26:01.997Z,8.20
2018-12-31T08:28:31.081Z,8.10
2018-12-31T08:31:00.178Z,8.10
2018-12-31T08:33:29.258Z,8.30
2018-12-31T08:35:58.345Z,8.40
2018-12-31T08:38:27.428Z,8.20
2018-12-31T08:40:56.526Z,8.10
2018-12-31T08:43:25.618Z,8.30
2018-12-31T08:45:57.123Z,8.50
2018-12-31T08:48:26.465Z,8.40
2018-12-31T08:50:55.568Z,8.30
2018-12-31T08:53:25.633Z,8.40
2018-12-31T08:55:54.734Z,8.50
2018-12-31T08:58:23.854Z,8.40
2018-12-31T09:00:52.960Z,8.40
2018-12-31T09:03:22.054Z,8.30
2018-12-31T09:05:51.158Z,8.40
2018-12-31T09:08:20.239Z,8.40
2018-12-31T09:10:50.406Z,8.40
2018-12-31T09:13:19.496Z,8.40
2018-12-31T09:15:48.580Z,8.50
2018-12-31T09:18:17.665Z,8.50
2018-12-31T09:20:46.777Z,8.70
2018-12-31T09:23:15.857Z,8.40
2018-12-31T09:25:44.952Z,8.50
2018-12-31T09:28:14.053Z,8.60
2018-12-31T09:30:43.141Z,8.60
2018-12-31T09:33:12.239Z,8.60
2018-12-31T09:35:41.326Z,8.60
2018-12-31T09:38:10.435Z,8.50
2018-12-31T09:40:39.576Z,8.50
2018-12-31T09:43:08.677Z,8.50
2018-12-31T09:45:37.768Z,8.60
2018-12-31T09:48:06.867Z,8.60
2018-12-31T09:50:35.953Z,8.50
2018-12-31T09:53:05.042Z,8.50
2018-12-31T09:55:34.209Z,8.40
2018-12-31T09:58:03.293Z,8.40
2018-12-31T10:00:32.394Z,8.50
2018-12-31T10:03:01.484Z,8.60
2018-12-31T10:05:30.581Z,8.70
2018-12-31T10:07:59.674Z,8.60
2018-12-31T10:10:28.792Z,8.60
2018-12-31T10:12:57.874Z,8.50
2018-12-31T10:15:27.050Z,8.60
2018-12-31T10:17:56.143Z,8.60
2018-12-31T10:20:25.242Z,8.50
2018-12-31T10:22:54.361Z,8.60
2018-12-31T10:25:23.452Z,8.50
2018-12-31T10:27:52.566Z,8.50
2018-12-31T10:30:21.679Z,8.60
2018-12-31T10:32:50.749Z,8.70
2018-12-31T10:35:19.846Z,8.80
2018-12-31T10:37:48.948Z,8.70
2018-12-31T10:40:18.048Z,8.80
2018-12-31T10:42:47.132Z,8.90
2018-12-31T10:45:16.222Z,9.00
2018-12-31T10:47:45.312Z,9.00
2018-12-31T10:50:14.406Z,8.80
2018-12-31T10:52:43.509Z,8.80
2018-12-31T10:55:13.506Z,8.70
2018-12-31T10:57:42.613Z,8.80
2018-12-31T11:00:11.705Z,8.90
2018-12-31T11:02:40.806Z,8.90
2018-12-31T11:05:09.907Z,9.10
2018-12-31T11:07:39.001Z,9.10
2018-12-31T11:10:08.514Z,9.10
2018-12-31T11:12:38.879Z,9.10
2018-12-31T11:15:08.046Z,9.30
2018-12-31T11:17:37.141Z,9.50
2018-12-31T11:20:06.242Z,9.10
2018-12-31T11:22:35.333Z,9.10
2018-12-31T11:25:04.662Z,9.20
2018-12-31T11:27:33.815Z,9.30
2018-12-31T11:30:02.969Z,9.40
2018-12-31T11:32:33.262Z,9.30
2018-12-31T11:35:02.358Z,9.10
2018-12-31T11:37:34.835Z,9.00
2018-12-31T11:40:02.325Z,8.70
2018-12-31T11:42:31.476Z,8.70
2018-12-31T11:45:00.568Z,9.00
2018-12-31T11:47:29.727Z,9.00
2018-12-31T11:49:59.709Z,9.00
2018-12-31T11:52:28.910Z,9.20
2018-12-31T11:54:59.307Z,9.30
2018-12-31T11:57:28.414Z,9.30
2018-12-31T11:59:57.532Z,9.40
2018-12-31T12:02:26.649Z,9.30
2018-12-31T12:04:55.748Z,9.40
2018-12-31T12:07:24.916Z,9.40
2018-12-31T12:09:54.016Z,9.50
2018-12-31T12:12:23.274Z,9.50
2018-12-31T12:14:52.371Z,9.40
2018-12-31T12:17:21.457Z,9.30
2018-12-31T12:19:50.554Z,9.20
2018-12-31T12:22:19.649Z,9.30
2018-12-31T12:24:49.040Z,9.20
2018-12-31T12:27:18.126Z,9.10
2018-12-31T12:29:47.232Z,9.00
2018-12-31T12:32:16.318Z,9.00
2018-12-31T12:34:45.425Z,8.90
2018-12-31T12:37:14.723Z,8.90
2018-12-31T12:39:43.793Z,8.90
2018-12-31T12:42:12.913Z,9.00
2018-12-31T12:44:41.998Z,8.90
2018-12-31T12:47:11.372Z,9.00
2018-12-31T12:49:40.459Z,8.90
2018-12-31T12:52:09.553Z,8.90
2018-12-31T12:54:38.638Z,8.80
2018-12-31T12:57:07.734Z,8.90
2018-12-31T12:59:36.835Z,9.00
2018-12-31T13:02:05.937Z,9.10
2018-12-31T13:04:35.016Z,9.20
2018-12-31T13:07:04.131Z,9.30
2018-12-31T13:09:33.228Z,9.30
2018-12-31T13:12:02.343Z,8.90
2018-12-31T13:14:31.497Z,9.10
2018-12-31T13:17:00.581Z,9.20
2018-12-31T13:19:29.678Z,9.30
2018-12-31T13:21:58.841Z,9.40
2018-12-31T13:24:27.953Z,9.40
2018-12-31T13:26:57.306Z,9.50
2018-12-31T13:29:26.406Z,9.30
2018-12-31T13:31:55.510Z,9.30
2018-12-31T13:34:24.609Z,9.30
2018-12-31T13:36:54.672Z,9.40
2018-12-31T13:39:23.774Z,9.50
2018-12-31T13:41:52.870Z,9.40
2018-12-31T13:44:21.968Z,9.50
2018-12-31T13:46:51.068Z,9.40
2018-12-31T13:49:20.422Z,9.50
2018-12-31T13:51:49.509Z,9.30
2018-12-31T13:54:18.604Z,9.40
2018-12-31T13:56:47.691Z,9.40
2018-12-31T13:59:16.789Z,9.40
2018-12-31T14:01:46.261Z,9.50
2018-12-31T14:04:15.381Z,9.30
2018-12-31T14:06:44.978Z,9.40
2018-12-31T14:09:14.148Z,9.60
2018-12-31T14:11:43.256Z,9.70
2018-12-31T14:14:12.533Z,9.60
2018-12-31T14:16:41.665Z,9.60
2018-12-31T14:19:10.765Z,9.50
2018-12-31T14:21:39.943Z,9.40
2018-12-31T14:24:09.036Z,9.30
2018-12-31T14:26:38.138Z,9.20
2018-12-31T14:29:07.241Z,9.30
2018-12-31T14:31:36.332Z,9.30
2018-12-31T14:34:05.547Z,9.20
2018-12-31T14:36:34.791Z,9.30
2018-12-31T14:39:05.781Z,9.30
2018-12-31T14:41:35.202Z,9.30
2018-12-31T14:44:04.345Z,9.30
2018-12-31T14:46:33.486Z,9.30
2018-12-31T14:49:02.617Z,9.50
2018-12-31T14:51:31.746Z,9.60
2018-12-31T14:54:00.888Z,9.40
2018-12-31T14:56:29.988Z,9.20
2018-12-31T14:58:59.115Z,9.30
2018-12-31T15:01:28.263Z,9.40
2018-12-31T15:03:57.352Z,9.40
2018-12-31T15:06:26.516Z,9.40
2018-12-31T15:08:55.630Z,9.50
2018-12-31T15:11:24.734Z,9.50
2018-12-31T15:13:54.052Z,9.20
2018-12-31T15:16:23.162Z,9.40
2018-12-31T15:18:52.252Z,9.60
2018-12-31T15:21:21.350Z,9.60
2018-12-31T15:23:50.453Z,9.70
2018-12-31T15:26:19.569Z,9.80
2018-12-31T15:28:48.657Z,9.90
2018-12-31T15:31:17.984Z,9.80
2018-12-31T15:33:47.497Z,9.90
2018-12-31T15:36:16.606Z,10.00
2018-12-31T15:38:45.696Z,10.00
2018-12-31T15:41:14.808Z,9.90
2018-12-31T15:43:43.894Z,9.90
2018-12-31T15:46:19.998Z,10.00
2018-12-31T15:48:43.786Z,10.00
2018-12-31T15:51:13.358Z,9.80
2018-12-31T15:53:43.208Z,9.90
2018-12-31T15:56:12.308Z,9.80
2018-12-31T15:58:41.648Z,9.70
2018-12-31T16:01:10.739Z,9.80
2018-12-31T16:03:40.316Z,9.80
2018-12-31T16:06:10.342Z,9.70
2018-12-31T16:08:39.442Z,9.70
2018-12-31T16:11:08.531Z,9.70
2018-12-31T16:13:37.706Z,9.70
2018-12-31T16:16:07.059Z,9.70
2018-12-31T16:18:36.169Z,9.60
2018-12-31T16:21:05.909Z,9.70
2018-12-31T16:23:35.190Z,9.70
2018-12-31T16:26:04.300Z,9.70
2018-12-31T16:28:33.653Z,9.50
2018-12-31T16:31:03.553Z,9.50
2018-12-31T16:33:32.653Z,9.50
2018-12-31T16:36:01.737Z,9.40
2018-12-31T16:38:30.920Z,9.50
2018-12-31T16:41:00.299Z,9.50
2018-12-31T16:43:29.384Z,9.50
2018-12-31T16:45:58.472Z,9.40
2018-12-31T16:48:27.579Z,9.60
2018-12-31T16:50:56.673Z,9.60
2018-12-31T16:53:26.136Z,9.50
2018-12-31T16:55:55.217Z,9.60
2018-12-31T16:58:24.663Z,9.70
2018-12-31T17:00:53.746Z,9.70
2018-12-31T17:03:22.842Z,9.70
2018-12-31T17:05:52.451Z,9.70
2018-12-31T17:08:21.545Z,9.60
2018-12-31T17:10:50.940Z,9.60
2018-12-31T17:13:20.574Z,9.60
2018-12-31T17:15:49.657Z,9.70
2018-12-31T17:18:19.132Z,9.80
2018-12-31T17:20:48.217Z,9.80
2018-12-31T17:23:17.337Z,9.80
2018-12-31T17:25:46.438Z,9.80
2018-12-31T17:28:15.533Z,9.80
2018-12-31T17:30:45.455Z,9.80
2018-12-31T17:33:14.565Z,9.80
2018-12-31T17:35:43.912Z,9.90
2018-12-31T17:38:12.988Z,9.90
2018-12-31T17:40:42.089Z,9.90
2018-12-31T17:43:12.056Z,9.80
2018-12-31T17:45:41.177Z,9.70
2018-12-31T17:48:10.280Z,9.60
2018-12-31T17:50:39.407Z,9.60
2018-12-31T17:53:08.849Z,9.60
2018-12-31T17:55:38.320Z,9.60
2018-12-31T17:58:07.406Z,9.60
2018-12-31T18:00:36.518Z,9.40
2018-12-31T18:03:05.616Z,9.50
2018-12-31T18:05:34.722Z,9.50
2018-12-31T18:08:04.090Z,9.60
2018-12-31T18:10:33.196Z,9.50
2018-12-31T18:13:02.301Z,9.50
2018-12-31T18:15:31.405Z,9.50
2018-12-31T18:18:00.516Z,9.50
2018-12-31T18:20:30.959Z,9.30
2018-12-31T18:23:00.363Z,9.50
2018-12-31T18:25:30.435Z,9.50
2018-12-31T18:27:59.543Z,9.50
2018-12-31T18:30:28.651Z,9.40
2018-12-31T18:32:58.011Z,9.30
2018-12-31T18:35:27.141Z,9.30
2018-12-31T18:37:56.234Z,9.20
2018-12-31T18:40:25.348Z,9.20
2018-12-31T18:42:54.442Z,9.30
2018-12-31T18:45:23.913Z,9.40
2018-12-31T18:47:53.002Z,9.50
2018-12-31T18:50:22.103Z,9.50
2018-12-31T18:52:51.185Z,9.60
2018-12-31T18:55:20.277Z,9.50
2018-12-31T18:57:49.751Z,9.50
2018-12-31T19:00:19.158Z,9.60
2018-12-31T19:02:48.265Z,9.60
2018-12-31T19:05:17.350Z,9.70
2018-12-31T19:07:46.513Z,9.70
2018-12-31T19:10:15.881Z,9.70
2018-12-31T19:12:44.982Z,9.70
2018-12-31T19:15:14.067Z,9.70
2018-12-31T19:17:43.160Z,9.80
2018-12-31T19:20:12.540Z,9.70
2018-12-31T19:22:42.008Z,9.80
2018-12-31T19:25:11.387Z,9.80
2018-12-31T19:27:40.753Z,9.90
2018-12-31T19:30:09.844Z,9.80
2018-12-31T19:32:38.977Z,9.70
2018-12-31T19:35:08.613Z,9.60
2018-12-31T19:37:37.716Z,9.70
2018-12-31T19:40:06.838Z,9.70
2018-12-31T19:42:35.928Z,9.60
2018-12-31T19:45:05.076Z,9.60
2018-12-31T19:47:34.598Z,9.70
2018-12-31T19:50:04.649Z,9.70
2018-12-31T19:52:33.786Z,9.60
2018-12-31T19:55:04.185Z,9.60
2018-12-31T19:57:33.295Z,9.60
2018-12-31T20:00:02.662Z,9.70
2018-12-31T20:02:31.779Z,9.70
2018-12-31T20:05:00.856Z,9.60
2018-12-31T20:07:29.994Z,9.60
2018-12-31T20:09:59.076Z,9.70
2018-12-31T20:12:28.187Z,9.70
2018-12-31T20:14:57.398Z,9.60
2018-12-31T20:17:26.488Z,9.70
2018-12-31T20:19:55.578Z,9.70
2018-12-31T20:22:24.760Z,9.70
2018-12-31T20:24:54.249Z,9.70
2018-12-31T20:27:23.378Z,9.70
2018-12-31T20:29:52.495Z,9.60
2018-12-31T20:32:21.585Z,9.50
2018-12-31T20:34:50.755Z,9.60
2018-12-31T20:37:19.866Z,9.50
2018-12-31T20:39:51.665Z,9.50
2018-12-31T20:42:20.748Z,9.50
2018-12-31T20:44:49.866Z,9.60
2018-12-31T20:47:19.037Z,9.70
2018-12-31T20:49:48.226Z,9.80
2018-12-31T20:52:17.314Z,9.80
2018-12-31T20:54:46.400Z,9.80
2018-12-31T20:57:15.617Z,9.80
2018-12-31T20:59:44.746Z,9.70
2018-12-31T21:02:13.894Z,9.70
2018-12-31T21:04:43.057Z,9.80
2018-12-31T21:07:12.153Z,9.90
2018-12-31T21:09:42.379Z,9.70
2018-12-31T21:12:11.491Z,9.70
2018-12-31T21:14:40.584Z,9.80
2018-12-31T21:17:11.076Z,9.80
2018-12-31T21:19:40.181Z,9.80
2018-12-31T21:22:09.264Z,9.80
2018-12-31T21:24:38.407Z,9.90
2018-12-31T21:27:07.577Z,9.90
2018-12-31T21:29:36.756Z,9.90
2018-12-31T21:32:05.853Z,10.00
2018-12-31T21:34:34.996Z,10.00
2018-12-31T21:37:04.144Z,9.90
2018-12-31T21:39:33.562Z,9.90
2018-12-31T21:42:02.708Z,9.70
2018-12-31T21:44:32.091Z,9.80
2018-12-31T21:47:01.169Z,9.80
2018-12-31T21:49:30.272Z,9.90
2018-12-31T21:51:59.554Z,10.00
2018-12-31T21:54:28.676Z,9.90
2018-12-31T21:56:58.171Z,10.00
2018-12-31T21:59:27.270Z,10.00
2018-12-31T22:01:56.368Z,10.20
2018-12-31T22:04:25.468Z,10.10
2018-12-31T22:06:54.558Z,10.00
2018-12-31T22:09:24.699Z,10.00
2018-12-31T22:11:53.895Z,9.90
2018-12-31T22:14:23.285Z,10.00
2018-12-31T22:16:52.734Z,10.00
2018-12-31T22:19:22.179Z,10.00
2018-12-31T22:21:54.628Z,10.20
2018-12-31T22:24:25.141Z,10.10
2018-12-31T22:26:54.672Z,10.10
2018-12-31T22:29:25.601Z,10.10
2018-12-31T22:31:55.042Z,10.10
2018-12-31T22:34:24.938Z,10.20
2018-12-31T22:36:54.411Z,10.10
2018-12-31T22:39:23.846Z,10.20
2018-12-31T22:41:53.042Z,10.30
2018-12-31T22:44:22.175Z,10.30
2018-12-31T22:46:51.571Z,10.20
2018-12-31T22:49:20.662Z,10.10
2018-12-31T22:51:49.821Z,10.00
2018-12-31T22:54:19.056Z,10.10
2018-12-31T22:56:48.247Z,10.20
2018-12-31T22:59:17.678Z,10.10
2018-12-31T23:01:46.851Z,10.00
2018-12-31T23:04:15.962Z,10.00
2018-12-31T23:06:47.169Z,10.00
2018-12-31T23:09:16.252Z,9.90
2018-12-31T23:11:45.389Z,9.80
2018-12-31T23:14:14.477Z,9.80
2018-12-31T23:16:43.670Z,9.80
2018-12-31T23:19:13.316Z,9.80
2018-12-31T23:21:42.500Z,9.80
2018-12-31T23:24:11.694Z,9.60
2018-12-31T23:26:40.861Z,9.60
2018-12-31T23:29:09.963Z,9.60
2018-12-31T23:31:39.121Z,9.60
2018-12-31T23:34:08.234Z,9.80
2018-12-31T23:36:37.823Z,9.70
2018-12-31T23:39:06.999Z,9.90
2018-12-31T23:41:36.101Z,9.90
2018-12-31T23:44:05.570Z,9.90
2018-12-31T23:46:34.967Z,10.00
2018-12-31T23:49:04.506Z,10.10
2018-12-31T23:51:33.618Z,10.10
2018-12-31T23:54:02.724Z,10.10
2018-12-31T23:56:31.844Z,10.10
2018-12-31T23:59:00.973Z,10.10
